createdAt,value
2018-01-26T00:02:17.752Z,100
2018-01-26T00:12:31.932Z,100
2018-01-26T00:22:47.188Z,100
2018-01-26T00:33:01.874Z,100
2018-01-26T00:43:16.837Z,100
2018-01-26T00:53:30.572Z,100
2018-01-26T01:03:44.536Z,99.9
2018-01-26T01:13:59.247Z,99.5
2018-01-26T01:24:14.336Z,98.6
2018-01-26T01:34:29.660Z,98.8
2018-01-26T01:44:45.709Z,98.3
2018-01-26T01:55:00.041Z,97.7
2018-01-26T02:05:14.993Z,97.4
2018-01-26T02:15:29.248Z,97.8
2018-01-26T02:25:44.515Z,98.2
2018-01-26T02:35:58.877Z,97.4
2018-01-26T02:46:14.501Z,97.6
2018-01-26T02:56:30.003Z,97.2
2018-01-26T03:06:44.689Z,96.5
2018-01-26T03:16:58.823Z,96.5
2018-01-26T03:27:12.812Z,95.1
2018-01-26T03:37:26.893Z,95.5
2018-01-26T03:47:41.772Z,95.2
2018-01-26T03:57:56.172Z,94.8
2018-01-26T04:08:09.984Z,94.9
2018-01-26T04:18:23.690Z,94.7
2018-01-26T04:28:38.603Z,94.4
2018-01-26T04:38:53.056Z,94.1
2018-01-26T04:49:07.671Z,93.8
2018-01-26T04:59:23.033Z,93.6
2018-01-26T05:09:36.680Z,92.9
2018-01-26T05:19:52.206Z,93.1
2018-01-26T05:30:06.687Z,92.7
2018-01-26T05:40:20.392Z,92.4
2018-01-26T05:50:35.722Z,91.9
2018-01-26T06:00:49.738Z,91.6
2018-01-26T06:11:04.831Z,91.8
2018-01-26T06:31:34.191Z,91.2
2018-01-26T06:41:48.567Z,91.1
2018-01-26T06:52:02.679Z,91.8
2018-01-26T07:02:18.180Z,91.3
2018-01-26T07:12:32.719Z,91.6
2018-01-26T07:22:47.598Z,91.9
2018-01-26T07:33:01.120Z,92.2
2018-01-26T07:43:15.144Z,92.5
2018-01-26T07:53:29.332Z,93.3
2018-01-26T08:03:44.838Z,94.5
2018-01-26T08:13:58.686Z,95
2018-01-26T08:24:12.813Z,96.5
2018-01-26T08:34:28.220Z,97.1
2018-01-26T08:44:43.669Z,98.9
2018-01-26T08:54:57.786Z,99.5
2018-01-26T09:05:12.899Z,100
2018-01-26T09:15:26.766Z,99.6
2018-01-26T09:25:42.190Z,97.8
2018-01-26T09:35:56.333Z,98.1
2018-01-26T09:46:11.610Z,100
2018-01-26T09:56:26.790Z,100
2018-01-26T10:06:42.399Z,100
2018-01-26T10:16:56.940Z,100
2018-01-26T10:27:11.374Z,100
2018-01-26T10:37:26.872Z,100
2018-01-26T10:47:41.951Z,100
2018-01-26T10:57:57.066Z,100
2018-01-26T11:08:10.974Z,100
2018-01-26T11:18:25.235Z,100
2018-01-26T11:28:40.167Z,100
2018-01-26T11:38:54.314Z,100
2018-01-26T11:49:08.176Z,100
2018-01-26T11:59:23.207Z,100
2018-01-26T12:09:39.071Z,100
2018-01-26T12:19:53.518Z,100
2018-01-26T12:30:08.311Z,100
2018-01-26T12:40:23.105Z,100
2018-01-26T12:50:37.661Z,100
2018-01-26T13:00:52.401Z,100
2018-01-26T13:11:07.477Z,100
2018-01-26T13:21:22.015Z,100
2018-01-26T13:31:37.229Z,100
2018-01-26T13:41:51.866Z,100
2018-01-26T13:52:06.639Z,100
2018-01-26T14:02:22.420Z,100
2018-01-26T14:12:36.891Z,100
2018-01-26T14:22:52.267Z,100
2018-01-26T14:33:07.352Z,100
2018-01-26T14:43:21.161Z,100
2018-01-26T14:53:36.534Z,100
2018-01-26T15:03:52.172Z,100
2018-01-26T15:14:06.671Z,100
2018-01-26T15:24:20.419Z,100
2018-01-26T15:34:34.156Z,100
2018-01-26T15:44:48.372Z,100
2018-01-26T15:55:02.857Z,100
2018-01-26T16:05:18.088Z,100
2018-01-26T16:15:31.990Z,100
2018-01-26T16:25:46.764Z,100
2018-01-26T16:36:02.148Z,100
2018-01-26T16:46:17.584Z,100
2018-01-26T16:56:32.166Z,100
2018-01-26T17:06:46.168Z,100
2018-01-26T17:17:01.577Z,100
2018-01-26T17:27:15.815Z,100
2018-01-26T17:37:30.124Z,99.2
2018-01-26T17:47:44.423Z,98.1
2018-01-26T17:58:00.061Z,97.6
2018-01-26T18:08:15.572Z,97.2
2018-01-26T18:18:31.115Z,96.9
2018-01-26T18:28:44.515Z,96.2
2018-01-26T18:38:59.286Z,95.8
2018-01-26T18:49:14.353Z,95.5
2018-01-26T18:59:29.076Z,95.7
2018-01-26T19:09:44.341Z,95.8
2018-01-26T19:19:58.760Z,95.6
2018-01-26T19:30:13.871Z,96.2
2018-01-26T19:40:28.768Z,96.4
2018-01-26T19:50:44.318Z,97.6
2018-01-26T20:00:59.791Z,98.5
2018-01-26T20:11:15.260Z,100
2018-01-26T20:21:29.025Z,100
2018-01-26T20:31:43.748Z,100
2018-01-26T20:41:57.799Z,100
2018-01-26T20:52:12.416Z,100
2018-01-26T21:02:27.366Z,100
2018-01-26T21:12:41.632Z,100
2018-01-26T21:22:56.325Z,100
2018-01-26T21:33:10.810Z,100
2018-01-26T21:43:24.512Z,100
2018-01-26T21:53:39.241Z,100
2018-01-26T22:03:53.400Z,100
2018-01-26T22:14:08.274Z,100
2018-01-26T22:24:23.274Z,100
2018-01-26T22:34:36.998Z,100
2018-01-26T22:44:52.470Z,100
2018-01-26T22:55:07.041Z,100
2018-01-26T23:05:22.600Z,100
2018-01-26T23:15:37.211Z,100
2018-01-26T23:25:52.337Z,100
2018-01-26T23:36:06.942Z,100
2018-01-26T23:46:21.162Z,100
2018-01-26T23:56:36.903Z,100
